Time;durP1;ratioP1;P1;durP2;ratioP2;P2;SDS_P1;SDS_P2;PMS_P1;PMS_P2;Temp;Humidity;BMP_temperature;BMP_pressure;BME280_temperature;BME280_humidity;BME280_pressure;Samples;Min_cycle;Max_cycle;Signal;HPM_P1;HPM_P2
2023/07/05 00:00:32;;;;;;;17.30;5.57;;;;;;;15.69;100.00;100265.00;5078457;28;20055;-75
2023/07/05 00:02:58;;;;;;;17.77;5.47;;;;;;;15.66;100.00;100251.78;5062324;28;20020;-75
2023/07/05 00:05:24;;;;;;;16.10;5.30;;;;;;;15.67;100.00;100244.53;5066283;28;20523;-75
2023/07/05 00:07:49;;;;;;;17.75;5.40;;;;;;;15.67;100.00;100228.25;5080401;28;20034;-75
2023/07/05 00:10:15;;;;;;;13.38;4.53;;;;;;;15.68;100.00;100224.53;5074128;28;20022;-75
2023/07/05 00:12:40;;;;;;;13.88;4.65;;;;;;;15.66;100.00;100224.69;5064846;28;20040;-75
2023/07/05 00:15:07;;;;;;;13.10;4.80;;;;;;;15.68;100.00;100225.41;5058911;28;20029;-75
2023/07/05 00:17:33;;;;;;;15.00;4.82;;;;;;;15.69;100.00;100201.84;5055858;28;20098;-75
2023/07/05 00:19:59;;;;;;;15.75;4.55;;;;;;;15.65;100.00;100190.50;5074031;28;20047;-75
2023/07/05 00:22:28;;;;;;;15.07;4.45;;;;;;;15.62;100.00;100171.00;5075166;28;20381;-75
2023/07/05 00:24:55;;;;;;;16.58;5.00;;;;;;;15.61;100.00;100169.28;5064307;28;20136;-75
2023/07/05 00:27:21;;;;;;;16.20;4.30;;;;;;;15.57;100.00;100182.31;5082860;28;20032;-75
2023/07/05 00:29:47;;;;;;;12.30;4.03;;;;;;;15.57;100.00;100162.53;5059342;28;20093;-75
2023/07/05 00:32:12;;;;;;;9.80;3.70;;;;;;;15.53;100.00;100156.56;5079943;28;20365;-75
2023/07/05 00:34:37;;;;;;;14.02;3.78;;;;;;;15.48;100.00;100142.69;5079460;28;20028;-75
2023/07/05 00:37:03;;;;;;;12.73;3.70;;;;;;;15.46;100.00;100117.59;5061068;28;20472;-75
2023/07/05 00:39:28;;;;;;;12.35;4.30;;;;;;;15.45;100.00;100097.81;5060530;28;20070;-75
2023/07/05 00:41:55;;;;;;;11.55;3.80;;;;;;;15.42;100.00;100108.09;5079089;28;20032;-75
2023/07/05 00:44:20;;;;;;;14.50;4.45;;;;;;;15.41;100.00;100119.97;5076794;28;20056;-75
2023/07/05 00:46:49;;;;;;;20.35;5.03;;;;;;;15.37;100.00;100136.53;5061278;28;20020;-75
2023/07/05 00:49:20;;;;;;;13.98;4.20;;;;;;;15.39;100.00;100136.38;5063437;28;20106;-76
2023/07/05 00:51:50;;;;;;;13.57;4.20;;;;;;;15.38;100.00;100132.78;5059679;28;20020;-76
2023/07/05 00:54:18;;;;;;;14.73;4.32;;;;;;;15.40;100.00;100120.97;5070407;28;20472;-75
2023/07/05 00:56:56;;;;;;;16.23;4.70;;;;;;;15.40;100.00;100115.56;5060754;28;20128;-75
2023/07/05 00:59:26;;;;;;;13.97;4.53;;;;;;;15.37;100.00;100114.88;5056414;28;20028;-75
2023/07/05 01:01:52;;;;;;;12.32;4.10;;;;;;;15.39;100.00;100103.88;5092423;28;20285;-75
2023/07/05 01:04:18;;;;;;;14.10;4.65;;;;;;;15.37;100.00;100104.06;5095426;28;20024;-74
2023/07/05 01:06:44;;;;;;;15.77;4.60;;;;;;;15.37;100.00;100104.06;5066115;28;20495;-74
2023/07/05 01:09:10;;;;;;;9.55;3.72;;;;;;;15.34;100.00;100096.25;5066879;28;20116;-75
2023/07/05 01:11:45;;;;;;;15.60;4.53;;;;;;;15.34;100.00;100090.84;5072395;28;20397;-75
2023/07/05 01:14:24;;;;;;;15.57;3.97;;;;;;;15.38;100.00;100102.19;5078724;28;20024;-74
2023/07/05 01:17:02;;;;;;;11.55;4.43;;;;;;;15.38;100.00;100097.59;5088537;28;20033;-74
2023/07/05 01:19:57;;;;;;;13.07;4.20;;;;;;;15.40;100.00;100099.31;5061057;28;20157;-75
2023/07/05 01:22:42;;;;;;;12.10;3.80;;;;;;;15.41;100.00;100095.59;5077109;28;20055;-75
2023/07/05 01:25:53;;;;;;;14.25;4.15;;;;;;;15.43;100.00;100110.66;5059234;28;20048;-76
2023/07/05 01:28:35;;;;;;;15.27;4.03;;;;;;;15.46;100.00;100112.19;5025924;28;20032;-74
2023/07/05 01:31:44;;;;;;;12.80;4.10;;;;;;;15.47;100.00;100097.66;5025756;28;20051;-75
2023/07/05 01:34:13;;;;;;;14.82;3.70;;;;;;;15.50;100.00;100089.19;5019911;28;20048;-76
2023/07/05 01:36:39;;;;;;;11.75;3.65;;;;;;;15.50;100.00;100105.44;5037248;28;20106;-74
2023/07/05 01:39:04;;;;;;;8.18;3.08;;;;;;;15.49;100.00;100107.31;5027805;28;20037;-75
2023/07/05 01:41:30;;;;;;;12.32;4.05;;;;;;;15.49;100.00;100112.72;5036074;28;20076;-76
2023/07/05 01:43:56;;;;;;;12.20;3.53;;;;;;;15.50;100.00;100105.44;5042660;28;20037;-76
2023/07/05 01:46:22;;;;;;;10.95;3.60;;;;;;;15.49;100.00;100110.03;5044752;28;20026;-77
2023/07/05 01:49:00;;;;;;;10.43;3.30;;;;;;;15.51;100.00;100112.56;5044572;28;20047;-76
2023/07/05 01:51:40;;;;;;;10.23;3.40;;;;;;;15.50;100.00;100119.81;5034488;28;20072;-76
2023/07/05 01:54:13;;;;;;;13.50;4.00;;;;;;;15.49;100.00;100126.28;5028367;28;20056;-75
2023/07/05 01:56:58;;;;;;;9.57;3.30;;;;;;;15.47;100.00;100130.13;5044920;28;20040;-75
2023/07/05 01:59:31;;;;;;;10.05;3.13;;;;;;;15.45;100.00;100138.44;5008939;28;20093;-75
2023/07/05 02:01:58;;;;;;;13.52;3.17;;;;;;;15.44;100.00;100149.44;5029626;28;20041;-76
2023/07/05 02:04:26;;;;;;;9.98;3.40;;;;;;;15.39;100.00;100160.75;5062719;28;20052;-75
2023/07/05 02:06:53;;;;;;;13.23;3.38;;;;;;;15.35;100.00;100156.66;5100042;28;20101;-76
2023/07/05 02:09:18;;;;;;;15.00;3.33;;;;;;;15.30;100.00;100181.50;5088502;28;20034;-75
2023/07/05 02:11:44;;;;;;;8.20;3.10;;;;;;;15.23;100.00;100190.41;5096935;28;20028;-75
2023/07/05 02:14:11;;;;;;;11.52;2.80;;;;;;;15.20;100.00;100191.59;5095821;28;20040;-75
2023/07/05 02:16:38;;;;;;;10.15;2.38;;;;;;;15.10;100.00;100204.38;5077165;28;20017;-75
2023/07/05 02:19:05;;;;;;;8.80;2.88;;;;;;;15.01;100.00;100208.88;5103149;28;20059;-75
2023/07/05 02:21:30;;;;;;;10.48;2.83;;;;;;;14.91;100.00;100213.53;5076255;28;20008;-74
2023/07/05 02:23:55;;;;;;;10.82;3.25;;;;;;;14.82;100.00;100226.97;5080064;28;20028;-76
2023/07/05 02:26:20;;;;;;;10.93;3.53;;;;;;;14.72;100.00;100219.97;5078273;28;20020;-75
2023/07/05 02:28:46;;;;;;;10.55;3.47;;;;;;;14.64;100.00;100224.28;5098046;28;20093;-74
2023/07/05 02:31:11;;;;;;;11.73;3.13;;;;;;;14.56;100.00;100224.16;5074447;28;20032;-75
2023/07/05 02:33:39;;;;;;;8.20;2.75;;;;;;;14.51;100.00;100240.03;5068048;28;20119;-76
2023/07/05 02:36:10;;;;;;;11.60;3.03;;;;;;;14.45;100.00;100243.31;5063156;28;20103;-74
2023/07/05 02:38:36;;;;;;;8.50;2.90;;;;;;;14.41;100.00;100234.66;5070334;28;20036;-75
2023/07/05 02:41:01;;;;;;;8.52;2.88;;;;;;;14.35;100.00;100237.97;5087348;28;20466;-74
2023/07/05 02:43:26;;;;;;;11.50;2.88;;;;;;;14.30;100.00;100246.53;5097279;28;20023;-75
2023/07/05 02:45:52;;;;;;;10.80;3.25;;;;;;;14.25;100.00;100251.56;5078253;28;20039;-74
2023/07/05 02:48:17;;;;;;;13.60;3.55;;;;;;;14.20;100.00;100247.59;5073737;28;20398;-75
2023/07/05 02:50:42;;;;;;;12.60;3.35;;;;;;;14.15;100.00;100246.19;5090315;28;20020;-74
2023/07/05 02:53:08;;;;;;;11.93;3.38;;;;;;;14.11;100.00;100233.97;5075637;28;20032;-75
2023/07/05 02:55:33;;;;;;;12.15;3.65;;;;;;;14.09;100.00;100229.75;5095022;28;20032;-74
2023/07/05 02:57:58;;;;;;;10.80;3.47;;;;;;;14.05;100.00;100236.44;5078705;28;20032;-75
2023/07/05 03:00:25;;;;;;;11.40;3.72;;;;;;;14.02;100.00;100234.03;5093575;28;20032;-75
2023/07/05 03:02:50;;;;;;;12.52;3.50;;;;;;;13.97;100.00;100226.41;5096302;28;20035;-74
2023/07/05 03:05:16;;;;;;;13.05;3.80;;;;;;;13.93;100.00;100230.41;5100386;28;20051;-74
2023/07/05 03:07:41;;;;;;;15.80;3.35;;;;;;;13.88;100.00;100233.53;5096508;28;20136;-75
2023/07/05 03:10:07;;;;;;;12.35;3.47;;;;;;;13.85;100.00;100239.25;5075761;28;20032;-75
2023/07/05 03:12:32;;;;;;;12.80;3.70;;;;;;;13.80;100.00;100236.13;5099554;28;20070;-74
2023/07/05 03:14:58;;;;;;;15.95;4.47;;;;;;;13.76;100.00;100229.31;5075000;28;20113;-74
2023/07/05 03:17:24;;;;;;;12.25;3.65;;;;;;;13.69;100.00;100242.59;5096022;28;20044;-75
2023/07/05 03:19:52;;;;;;;14.13;3.85;;;;;;;13.68;100.00;100231.94;5095496;28;20180;-75
2023/07/05 03:22:17;;;;;;;17.00;4.38;;;;;;;13.67;100.00;100238.31;5074686;28;20452;-75
2023/07/05 03:24:43;;;;;;;16.13;4.30;;;;;;;13.64;100.00;100242.16;5085329;28;20040;-74
2023/07/05 03:27:08;;;;;;;12.23;3.70;;;;;;;13.64;100.00;100226.78;5079727;28;20028;-74
2023/07/05 03:29:33;;;;;;;14.50;4.45;;;;;;;13.63;100.00;100230.50;5096099;28;20488;-74
2023/07/05 03:31:59;;;;;;;15.43;4.25;;;;;;;13.63;100.00;100240.44;5101163;28;20032;-75
2023/07/05 03:34:24;;;;;;;14.70;4.65;;;;;;;13.66;100.00;100239.31;5099188;28;20062;-74
2023/07/05 03:36:49;;;;;;;17.05;4.68;;;;;;;13.66;100.00;100237.47;5084923;28;20032;-74
2023/07/05 03:39:15;;;;;;;15.07;4.78;;;;;;;13.66;100.00;100242.00;5097396;28;20031;-75
2023/07/05 03:41:40;;;;;;;19.30;5.25;;;;;;;13.69;100.00;100239.88;5093598;28;20020;-74
2023/07/05 03:44:08;;;;;;;12.95;3.97;;;;;;;13.69;100.00;100239.00;5097122;28;20033;-74
2023/07/05 03:46:34;;;;;;;17.85;4.65;;;;;;;13.72;100.00;100246.81;5088407;28;20025;-73
2023/07/05 03:48:59;;;;;;;17.27;4.70;;;;;;;13.70;100.00;100246.97;5095111;28;20395;-74
2023/07/05 03:51:25;;;;;;;15.93;4.65;;;;;;;13.71;100.00;100239.72;5078864;28;20024;-74
2023/07/05 03:53:53;;;;;;;14.98;4.18;;;;;;;13.71;100.00;100240.56;5077708;28;20057;-74
2023/07/05 03:56:18;;;;;;;14.38;4.78;;;;;;;13.72;100.00;100238.72;5064411;28;20094;-73
2023/07/05 03:58:44;;;;;;;13.25;4.30;;;;;;;13.75;100.00;100238.44;5070142;28;20028;-72
2023/07/05 04:01:14;;;;;;;15.30;4.70;;;;;;;13.76;100.00;100221.22;5072627;28;20035;-74
2023/07/05 04:03:44;;;;;;;17.38;4.78;;;;;;;13.75;100.00;100225.78;5074979;28;20047;-73
2023/07/05 04:06:10;;;;;;;14.07;4.63;;;;;;;13.77;100.00;100229.16;5073727;28;20078;-73
2023/07/05 04:08:35;;;;;;;14.13;4.60;;;;;;;13.76;100.00;100229.31;5073254;28;20020;-74
2023/07/05 04:11:01;;;;;;;13.20;4.43;;;;;;;13.74;100.00;100236.72;5086203;28;20031;-74
2023/07/05 04:13:26;;;;;;;16.17;4.93;;;;;;;13.74;100.00;100239.44;5091064;28;20020;-73
2023/07/05 04:16:02;;;;;;;14.48;4.20;;;;;;;13.75;100.00;100241.13;5092204;28;20043;-73
2023/07/05 04:18:28;;;;;;;19.33;5.47;;;;;;;13.74;100.00;100232.16;5069965;28;20053;-74
2023/07/05 04:20:53;;;;;;;15.82;4.90;;;;;;;13.76;100.00;100240.13;5094051;28;20036;-73
2023/07/05 04:23:19;;;;;;;14.93;4.45;;;;;;;13.76;100.00;100229.31;5076207;28;20091;-73
2023/07/05 04:25:44;;;;;;;15.63;4.72;;;;;;;13.76;100.00;100234.72;5089793;28;20037;-74
2023/07/05 04:28:09;;;;;;;19.45;4.35;;;;;;;13.79;100.00;100246.09;5091513;28;20043;-75
2023/07/05 04:30:35;;;;;;;13.68;4.20;;;;;;;13.80;100.00;100244.22;5093858;28;20500;-75
2023/07/05 04:33:00;;;;;;;16.90;4.65;;;;;;;13.83;100.00;100241.22;5072979;28;20028;-76
2023/07/05 04:35:25;;;;;;;16.48;4.70;;;;;;;13.82;100.00;100228.72;5077431;28;20047;-75
2023/07/05 04:37:51;;;;;;;17.83;4.78;;;;;;;13.86;100.00;100245.50;5093441;28;20066;-76
2023/07/05 04:40:17;;;;;;;16.38;4.78;;;;;;;13.86;100.00;100240.09;5077528;28;20036;-76
2023/07/05 04:42:43;;;;;;;17.80;5.03;;;;;;;13.88;99.84;100247.06;5095200;28;20048;-76
2023/07/05 04:45:08;;;;;;;18.70;5.75;;;;;;;13.88;100.00;100238.06;5068348;28;20399;-76
2023/07/05 04:47:34;;;;;;;16.92;4.53;;;;;;;13.86;100.00;100243.63;5091048;28;20032;-77
2023/07/05 04:49:59;;;;;;;16.08;4.93;;;;;;;13.86;98.78;100246.34;5072842;28;20091;-76
2023/07/05 04:52:24;;;;;;;19.15;5.35;;;;;;;13.85;98.67;100241.94;5069711;28;20127;-77
2023/07/05 04:54:52;;;;;;;17.25;5.05;;;;;;;13.86;98.17;100240.09;5072848;28;20044;-77
2023/07/05 04:57:17;;;;;;;15.50;4.50;;;;;;;13.88;98.33;100246.19;5075802;28;20016;-76
2023/07/05 04:59:43;;;;;;;18.20;4.93;;;;;;;13.86;97.40;100240.09;5069894;28;20036;-75
2023/07/05 05:02:10;;;;;;;17.55;4.90;;;;;;;13.89;98.38;100247.91;5060850;28;20035;-76
2023/07/05 05:04:35;;;;;;;16.95;4.95;;;;;;;13.88;97.75;100244.34;5066151;28;20341;-75
2023/07/05 05:07:01;;;;;;;17.60;5.30;;;;;;;13.90;97.72;100252.31;5084786;28;20028;-79
2023/07/05 05:09:26;;;;;;;16.80;4.25;;;;;;;13.95;97.62;100258.09;5061030;28;20117;-77
2023/07/05 05:11:51;;;;;;;14.50;4.63;;;;;;;13.95;95.92;100258.97;5067017;28;20472;-76
2023/07/05 05:14:17;;;;;;;14.52;4.47;;;;;;;13.95;96.58;100271.59;5089910;28;20032;-76
2023/07/05 05:16:42;;;;;;;13.75;4.50;;;;;;;13.92;95.50;100267.34;5088926;28;20028;-76
2023/07/05 05:19:07;;;;;;;16.88;5.10;;;;;;;13.90;96.01;100285.56;5085819;28;20048;-75
2023/07/05 05:21:33;;;;;;;17.48;5.10;;;;;;;13.91;96.30;100273.75;5085133;28;20186;-77
2023/07/05 05:23:58;;;;;;;16.00;4.78;;;;;;;13.91;96.54;100260.25;5084401;28;20043;-76
2023/07/05 05:26:24;;;;;;;14.63;4.65;;;;;;;13.94;95.02;100269.91;5064981;28;20036;-74
2023/07/05 05:28:49;;;;;;;14.93;4.80;;;;;;;13.92;93.56;100266.50;5072752;28;20024;-77
2023/07/05 05:31:14;;;;;;;15.00;4.60;;;;;;;13.92;94.82;100270.03;5086462;28;20036;-76
2023/07/05 05:33:40;;;;;;;16.15;4.53;;;;;;;13.90;93.89;100263.94;5094215;28;20028;-76
2023/07/05 05:36:05;;;;;;;13.77;4.60;;;;;;;13.92;94.78;100270.03;5072585;28;20440;-76
2023/07/05 05:38:30;;;;;;;16.40;4.85;;;;;;;13.90;94.38;100274.75;5087175;28;20032;-76
2023/07/05 05:41:01;;;;;;;12.77;3.97;;;;;;;13.90;94.16;100269.34;5093796;28;20047;-76
2023/07/05 05:43:27;;;;;;;14.70;4.28;;;;;;;13.91;93.03;100275.59;5064537;28;20024;-76
2023/07/05 05:45:52;;;;;;;15.13;4.72;;;;;;;13.89;93.23;100272.22;5072644;28;20034;-75
2023/07/05 05:48:17;;;;;;;16.90;4.45;;;;;;;13.91;95.20;100287.28;5092346;28;20024;-75
2023/07/05 05:50:43;;;;;;;15.60;4.60;;;;;;;13.90;95.11;100274.75;5076435;28;20021;-76
2023/07/05 05:53:12;;;;;;;12.88;4.35;;;;;;;13.88;92.64;100281.28;5078183;28;20024;-76
2023/07/05 05:55:38;;;;;;;13.50;4.57;;;;;;;13.85;93.16;100281.59;5072938;28;20051;-76
2023/07/05 05:58:05;;;;;;;13.38;4.03;;;;;;;13.83;93.79;100289.84;5087106;28;20053;-75
2023/07/05 06:00:31;;;;;;;15.25;4.47;;;;;;;13.85;93.25;100287.00;5077196;28;20037;-76
2023/07/05 06:02:57;;;;;;;16.08;4.50;;;;;;;13.87;92.40;100307.47;5080107;28;20492;-75
2023/07/05 06:05:22;;;;;;;13.23;4.00;;;;;;;13.84;95.88;100307.78;5091367;28;20020;-76
2023/07/05 06:07:47;;;;;;;14.38;4.70;;;;;;;13.82;95.50;100301.66;5074403;28;20038;-76
2023/07/05 06:10:13;;;;;;;15.38;4.13;;;;;;;13.80;95.35;100317.16;5096304;28;20032;-76
2023/07/05 06:12:41;;;;;;;14.95;4.00;;;;;;;13.81;95.61;100318.88;5071114;28;20024;-77
2023/07/05 06:15:08;;;;;;;14.48;3.78;;;;;;;13.84;97.05;100312.34;5069594;28;20032;-76
2023/07/05 06:17:34;;;;;;;15.00;4.47;;;;;;;13.84;98.58;100318.56;5057672;28;20140;-75
2023/07/05 06:19:59;;;;;;;15.68;4.20;;;;;;;13.84;98.13;100333.94;5076774;28;20040;-76
2023/07/05 06:22:25;;;;;;;11.98;3.85;;;;;;;13.83;97.75;100334.94;5072770;28;20024;-76
2023/07/05 06:24:51;;;;;;;13.13;4.35;;;;;;;13.80;96.79;100334.19;5066523;28;20258;-74
2023/07/05 06:27:17;;;;;;;13.82;4.00;;;;;;;13.80;95.89;100334.19;5088017;28;20543;-74
2023/07/05 06:29:42;;;;;;;11.77;3.92;;;;;;;13.87;97.07;100325.53;5071942;28;20023;-74
2023/07/05 06:32:07;;;;;;;9.40;3.45;;;;;;;13.90;93.55;100338.75;5081342;28;20512;-74
2023/07/05 06:34:33;;;;;;;14.60;3.80;;;;;;;13.94;95.00;100341.00;5090862;28;20388;-74
2023/07/05 06:36:58;;;;;;;11.57;3.78;;;;;;;14.02;91.36;100336.72;5089483;28;20056;-73
2023/07/05 06:39:23;;;;;;;15.80;4.28;;;;;;;14.09;92.73;100348.63;5061148;28;20098;-74
2023/07/05 06:41:49;;;;;;;12.63;4.15;;;;;;;14.13;91.14;100352.75;5064565;28;20106;-73
2023/07/05 06:44:14;;;;;;;14.88;4.10;;;;;;;14.17;89.28;100351.44;5061688;28;20034;-74
2023/07/05 06:46:39;;;;;;;17.52;4.30;;;;;;;14.18;88.09;100360.41;5091647;28;20024;-75
2023/07/05 06:49:05;;;;;;;11.73;4.03;;;;;;;14.19;88.28;100360.25;5071408;28;20020;-74
2023/07/05 06:51:30;;;;;;;14.20;3.90;;;;;;;14.19;88.29;100371.06;5071626;28;20016;-74
2023/07/05 06:53:55;;;;;;;16.00;4.43;;;;;;;14.22;88.19;100368.06;5076554;28;20036;-73
2023/07/05 06:56:21;;;;;;;11.73;3.60;;;;;;;14.26;90.06;100368.63;5098013;28;20032;-73
2023/07/05 06:58:47;;;;;;;12.65;3.75;;;;;;;14.29;89.10;100368.31;5089429;28;20025;-73
2023/07/05 07:01:12;;;;;;;9.43;3.40;;;;;;;14.34;86.69;100369.56;5072826;28;20039;-74
2023/07/05 07:03:37;;;;;;;11.02;3.53;;;;;;;14.39;87.81;100390.75;5068505;28;20032;-73
2023/07/05 07:06:04;;;;;;;11.35;3.45;;;;;;;14.46;85.63;100382.91;5087921;28;20032;-73
2023/07/05 07:08:33;;;;;;;13.48;3.30;;;;;;;14.56;86.08;100393.69;5077558;28;20020;-74
2023/07/05 07:11:00;;;;;;;11.10;3.63;;;;;;;14.58;84.36;100407.91;5078138;28;20058;-74
2023/07/05 07:13:26;;;;;;;8.00;3.05;;;;;;;14.62;85.05;100406.63;5074270;28;20028;-74
2023/07/05 07:16:03;;;;;;;14.52;3.70;;;;;;;14.64;84.95;100405.50;5092050;28;20051;-74
2023/07/05 07:18:29;;;;;;;10.10;3.33;;;;;;;14.61;84.09;100413.00;5097849;28;20048;-74
2023/07/05 07:20:55;;;;;;;9.65;3.28;;;;;;;14.60;85.95;100401.34;5095589;28;20055;-73
2023/07/05 07:23:22;;;;;;;10.05;3.90;;;;;;;14.58;87.55;100419.56;5068401;28;20058;-74
2023/07/05 07:26:19;;;;;;;13.25;4.13;;;;;;;14.56;90.43;100435.09;5069498;28;20028;-74
2023/07/05 07:28:46;;;;;;;12.00;3.45;;;;;;;14.48;93.17;100429.56;5072156;28;20062;-74
2023/07/05 07:31:32;;;;;;;12.93;4.05;;;;;;;14.36;93.11;100444.28;5089906;28;20036;-73
2023/07/05 07:34:00;;;;;;;15.80;4.03;;;;;;;14.22;95.86;100451.88;5088388;28;20108;-73
2023/07/05 07:36:27;;;;;;;11.82;3.83;;;;;;;14.12;95.90;100456.44;5096634;28;20028;-75
2023/07/05 07:38:54;;;;;;;10.80;3.75;;;;;;;14.03;97.75;100463.56;5061773;28;20023;-74
2023/07/05 07:41:25;;;;;;;9.70;3.53;;;;;;;13.90;96.87;100453.06;5081613;28;20029;-74
2023/07/05 07:43:52;;;;;;;9.82;3.33;;;;;;;13.84;99.90;100459.03;5083932;28;20047;-73
2023/07/05 07:46:20;;;;;;;13.20;4.40;;;;;;;13.81;99.17;100483.63;5091833;28;20028;-74
2023/07/05 07:48:48;;;;;;;11.00;3.83;;;;;;;13.74;98.78;100477.09;5087571;28;20063;-74
2023/07/05 07:51:14;;;;;;;10.95;4.07;;;;;;;13.67;100.00;100474.09;5087529;28;20031;-74
2023/07/05 07:53:40;;;;;;;11.65;4.03;;;;;;;13.61;100.00;100497.13;5091413;28;20440;-74
2023/07/05 07:56:13;;;;;;;15.20;4.10;;;;;;;13.57;100.00;100490.31;5070214;28;20031;-74
2023/07/05 07:58:40;;;;;;;15.00;4.10;;;;;;;13.56;100.00;100495.84;5070989;28;20088;-73
2023/07/05 08:01:14;;;;;;;9.75;3.78;;;;;;;13.56;100.00;100490.47;5088882;28;20046;-74
2023/07/05 08:03:40;;;;;;;12.32;3.97;;;;;;;13.53;100.00;100488.88;5064495;28;20448;-74
2023/07/05 08:06:06;;;;;;;16.83;4.30;;;;;;;13.48;100.00;100480.34;5082046;28;20025;-74
2023/07/05 08:08:32;;;;;;;13.85;4.07;;;;;;;13.46;100.00;100493.97;5069991;28;20052;-74
2023/07/05 08:10:58;;;;;;;18.30;4.72;;;;;;;13.47;100.00;100489.44;5078621;28;20444;-75
2023/07/05 08:13:23;;;;;;;12.75;3.90;;;;;;;13.46;100.00;100501.22;5061399;28;20067;-73
2023/07/05 08:15:48;;;;;;;13.32;3.95;;;;;;;13.49;100.00;100492.84;5066116;28;20035;-75
2023/07/05 08:18:14;;;;;;;17.10;4.82;;;;;;;13.62;100.00;100501.53;5086981;28;20045;-74
2023/07/05 08:20:39;;;;;;;11.77;4.00;;;;;;;13.77;100.00;100506.50;5067476;28;20016;-75
2023/07/05 08:23:07;;;;;;;14.38;4.22;;;;;;;13.95;100.00;100521.03;5072434;28;20112;-74
2023/07/05 08:25:33;;;;;;;12.32;4.47;;;;;;;14.12;100.00;100508.63;5065532;28;20024;-75
2023/07/05 08:27:59;;;;;;;14.23;5.15;;;;;;;14.26;100.00;100523.56;5073703;28;20432;-73
2023/07/05 08:30:26;;;;;;;17.33;5.60;;;;;;;14.38;100.00;100516.13;5071365;28;20096;-75
2023/07/05 08:32:51;;;;;;;18.63;5.78;;;;;;;14.49;97.04;100520.50;5082685;28;20027;-75
2023/07/05 08:35:17;;;;;;;12.80;5.13;;;;;;;14.65;97.91;100520.78;5064246;28;20039;-74
2023/07/05 08:37:48;;;;;;;19.42;5.43;;;;;;;14.85;98.85;100526.13;5090205;28;20028;-75
2023/07/05 08:40:17;;;;;;;18.17;5.57;;;;;;;14.99;96.06;100541.91;5083774;28;20028;-74
2023/07/05 08:42:54;;;;;;;15.27;5.20;;;;;;;15.05;94.12;100531.47;5096897;28;20438;-73
2023/07/05 08:45:27;;;;;;;18.73;6.00;;;;;;;15.08;94.08;100544.69;5071947;28;20519;-75
2023/07/05 08:47:57;;;;;;;12.93;5.35;;;;;;;15.15;94.58;100548.50;5092321;28;20056;-73
2023/07/05 08:50:25;;;;;;;;;;;;;;;15.22;94.95;100563.16;5085519;28;20020;-73
2023/07/05 08:52:57;;;;;;;21.83;5.88;;;;;;;15.26;94.43;100567.25;5085196;28;19928;-74
2023/07/05 08:55:29;;;;;;;13.95;4.90;;;;;;;15.32;91.43;100565.81;5090207;28;20039;-74
2023/07/05 08:57:56;;;;;;;18.38;5.80;;;;;;;15.42;92.76;100560.31;5072472;28;20036;-75
2023/07/05 09:00:26;;;;;;;18.40;5.63;;;;;;;15.49;89.66;100564.13;5091487;28;20024;-74
2023/07/05 09:02:52;;;;;;;17.15;5.40;;;;;;;15.60;92.93;100577.47;5064717;28;20028;-75
2023/07/05 09:05:43;;;;;;;16.17;5.55;;;;;;;15.70;90.65;100588.25;5071024;28;20028;-74
2023/07/05 09:08:27;;;;;;;16.15;4.85;;;;;;;15.76;86.75;100576.81;5076456;28;20427;-74
2023/07/05 09:10:55;;;;;;;17.25;5.10;;;;;;;15.82;86.83;100597.06;5064283;28;20028;-74
2023/07/05 09:13:23;;;;;;;15.80;5.00;;;;;;;15.87;85.11;100605.56;5088832;28;20088;-75
2023/07/05 09:16:00;;;;;;;14.98;4.90;;;;;;;15.89;84.45;100603.56;5063074;28;20081;-75
2023/07/05 09:18:52;;;;;;;18.23;4.57;;;;;;;15.90;84.72;100584.44;5080588;28;20094;-75
2023/07/05 09:21:45;;;;;;;13.65;4.80;;;;;;;15.94;82.62;100625.63;5046633;28;20046;-75
2023/07/05 09:24:45;;;;;;;17.38;5.25;;;;;;;15.95;82.91;100624.63;5051952;28;20042;-74
2023/07/05 09:27:16;;;;;;;16.02;4.72;;;;;;;16.05;85.32;100630.00;5020900;28;20891;-75
2023/07/05 09:29:50;;;;;;;12.90;5.07;;;;;;;16.16;80.99;100639.75;5036094;28;20402;-75
2023/07/05 09:32:25;;;;;;;14.52;4.65;;;;;;;16.22;79.13;100622.84;5038902;28;20041;-75
2023/07/05 09:34:55;;;;;;;16.35;5.10;;;;;;;16.33;82.09;100636.19;5018173;28;20047;-75
2023/07/05 09:37:25;;;;;;;14.30;4.30;;;;;;;16.42;79.00;100643.38;5038770;28;20029;-74
2023/07/05 09:40:09;;;;;;;14.80;4.25;;;;;;;16.54;77.56;100635.00;5024817;28;20137;-75
2023/07/05 09:42:41;;;;;;;12.68;4.03;;;;;;;16.64;74.84;100662.91;5041085;28;20116;-74
2023/07/05 09:45:14;;;;;;;12.73;3.83;;;;;;;16.68;75.70;100663.47;5021374;28;20155;-74
2023/07/05 09:47:40;;;;;;;13.27;3.70;;;;;;;16.75;76.76;100669.94;5029579;28;20037;-75
2023/07/05 09:50:16;;;;;;;13.40;3.28;;;;;;;16.85;75.94;100669.84;5038515;28;20021;-74
2023/07/05 09:52:42;;;;;;;17.33;3.35;;;;;;;16.87;73.47;100667.84;5023378;28;20041;-74
2023/07/05 09:55:13;;;;;;;12.77;3.28;;;;;;;16.87;70.31;100671.44;5039039;28;20033;-74
2023/07/05 09:57:38;;;;;;;9.18;3.33;;;;;;;16.94;71.08;100680.66;5037912;28;20036;-74
2023/07/05 10:00:20;;;;;;;9.32;3.17;;;;;;;16.94;69.22;100679.78;5020503;28;20486;-73
2023/07/05 10:02:48;;;;;;;12.48;3.35;;;;;;;16.91;68.86;100680.97;5071347;28;20028;-74
2023/07/05 10:05:15;;;;;;;8.60;2.78;;;;;;;16.96;70.26;100701.38;5088974;28;20055;-74
2023/07/05 10:07:55;;;;;;;9.00;2.67;;;;;;;17.04;69.30;100701.41;5077600;28;20020;-74
2023/07/05 10:10:24;;;;;;;7.75;2.80;;;;;;;17.12;67.79;100713.19;5082942;28;20278;-74
2023/07/05 10:13:00;;;;;;;10.00;3.05;;;;;;;17.19;66.67;100731.56;5092927;28;20020;-74
2023/07/05 10:15:26;;;;;;;7.53;2.42;;;;;;;17.26;66.10;100706.34;5086073;28;20039;-77
2023/07/05 10:17:53;;;;;;;6.65;2.83;;;;;;;17.38;68.03;100708.75;5069074;28;20036;-76
2023/07/05 10:20:26;;;;;;;8.68;2.63;;;;;;;17.45;67.55;100724.28;5075756;28;20028;-77
2023/07/05 10:23:01;;;;;;;9.85;2.60;;;;;;;17.58;67.80;100715.66;5091806;28;20024;-76
2023/07/05 10:25:30;;;;;;;11.52;3.15;;;;;;;17.68;68.36;100704.69;5067276;28;20025;-77
2023/07/05 10:27:59;;;;;;;8.48;3.10;;;;;;;17.69;62.97;100749.88;5091965;28;20368;-76
2023/07/05 10:30:27;;;;;;;9.45;2.95;;;;;;;17.72;65.24;100744.13;5076491;28;20025;-76
2023/07/05 10:33:30;;;;;;;13.50;3.22;;;;;;;17.74;65.81;100735.81;5091583;28;20039;-76
2023/07/05 10:36:05;;;;;;;11.15;2.70;;;;;;;17.74;66.04;100761.13;5096310;28;20086;-77
2023/07/05 10:38:50;;;;;;;9.95;2.70;;;;;;;17.72;63.54;100762.31;5071963;28;20154;-78
2023/07/05 10:41:31;;;;;;;11.77;3.15;;;;;;;17.70;63.75;100762.47;5091918;28;20035;-76
2023/07/05 10:44:34;;;;;;;8.82;2.80;;;;;;;17.74;65.40;100758.41;5091790;28;20036;-76
2023/07/05 10:47:02;;;;;;;9.30;2.40;;;;;;;17.76;61.56;100771.81;5051530;28;20548;-77
2023/07/05 10:49:30;;;;;;;9.60;2.67;;;;;;;17.74;58.50;100784.75;5074801;28;20038;-76
2023/07/05 10:52:02;;;;;;;8.57;2.88;;;;;;;17.71;58.01;100769.59;5079167;28;20099;-77
2023/07/05 10:55:09;;;;;;;13.32;2.50;;;;;;;17.72;61.52;100775.91;5075801;28;20020;-75
2023/07/05 10:57:43;;;;;;;9.50;2.75;;;;;;;17.73;57.22;100789.34;5065180;28;20058;-76
2023/07/05 11:00:28;;;;;;;13.20;3.00;;;;;;;17.82;58.65;100782.91;5087386;28;20027;-77
2023/07/05 11:03:10;;;;;;;12.88;2.88;;;;;;;17.90;60.70;100784.00;5087112;28;20055;-76
2023/07/05 11:05:49;;;;;;;9.95;2.85;;;;;;;18.01;62.43;100782.84;5067187;28;20025;-77
2023/07/05 11:08:25;;;;;;;7.65;2.33;;;;;;;18.03;59.15;100789.84;5088470;28;20434;-76
2023/07/05 11:10:53;;;;;;;8.70;2.55;;;;;;;18.07;59.95;100791.22;5103797;28;20057;-76
2023/07/05 11:13:18;;;;;;;13.18;3.05;;;;;;;18.12;58.97;100791.56;5076910;28;20009;-77
2023/07/05 11:15:46;;;;;;;9.15;2.80;;;;;;;18.22;59.49;100802.34;5089229;28;20023;-76
2023/07/05 11:18:21;;;;;;;10.93;2.70;;;;;;;18.29;59.02;100797.09;5078988;28;20052;-77
2023/07/05 11:20:50;;;;;;;13.75;2.90;;;;;;;18.31;57.99;100803.22;5074590;28;20051;-77
2023/07/05 11:23:40;;;;;;;6.85;2.50;;;;;;;18.37;59.65;100797.13;5098391;28;20048;-77